Time;durP1;ratioP1;P1;durP2;ratioP2;P2;SDS_P1;SDS_P2;PMS_P1;PMS_P2;Temp;Humidity;BMP_temperature;BMP_pressure;BME280_temperature;BME280_humidity;BME280_pressure;Samples;Min_cycle;Max_cycle;Signal;HPM_P1;HPM_P2
2022/01/10 00:00:53;;;;;;;21.17;7.13;;;;;;;3.66;100.00;95425.41;5096859;28;20442;-31
2022/01/10 00:03:22;;;;;;;10.20;5.80;;;;;;;3.63;100.00;95418.75;5096542;28;20941;-30
2022/01/10 00:05:49;;;;;;;11.03;6.67;;;;;;;3.60;100.00;95427.09;5096551;28;20481;-31
2022/01/10 00:08:18;;;;;;;15.60;6.60;;;;;;;3.57;100.00;95422.31;5097033;28;20498;-30
2022/01/10 00:10:46;;;;;;;16.03;7.27;;;;;;;3.55;100.00;95421.72;5096591;28;20779;-30
2022/01/10 00:13:14;;;;;;;27.10;11.27;;;;;;;3.44;100.00;95422.47;5096358;28;20934;-31
2022/01/10 00:15:42;;;;;;;17.87;7.57;;;;;;;3.40;100.00;95416.06;5096406;28;20926;-30
2022/01/10 00:18:09;;;;;;;20.70;9.10;;;;;;;3.32;100.00;95424.28;5096625;28;20439;-32
2022/01/10 00:20:36;;;;;;;23.60;10.23;;;;;;;3.28;100.00;95424.72;5096624;28;20443;-31
2022/01/10 00:23:04;;;;;;;20.33;6.23;;;;;;;3.22;100.00;95420.38;5096580;28;20439;-31
2022/01/10 00:25:33;;;;;;;20.03;7.40;;;;;;;3.02;100.00;95404.91;5096064;28;20443;-31
2022/01/10 00:28:00;;;;;;;15.67;9.00;;;;;;;3.05;100.00;95417.59;5096324;28;20498;-31
2022/01/10 00:30:27;;;;;;;17.13;6.50;;;;;;;2.99;100.00;95409.78;5096621;28;20450;-30
2022/01/10 00:32:55;;;;;;;10.10;5.00;;;;;;;2.91;100.00;95418.78;5096006;28;20443;-30
2022/01/10 00:35:23;;;;;;;14.00;6.43;;;;;;;2.93;100.00;95410.69;5095975;28;20513;-31
2022/01/10 00:37:51;;;;;;;16.37;8.47;;;;;;;2.94;100.00;95412.28;5095955;28;20447;-31
2022/01/10 00:40:20;;;;;;;12.63;5.63;;;;;;;2.97;100.00;95417.06;5095918;28;20534;-31
2022/01/10 00:42:55;;;;;;;10.97;6.30;;;;;;;2.97;100.00;95406.59;5095927;28;20435;-30
2022/01/10 00:45:26;;;;;;;18.90;7.17;;;;;;;3.02;100.00;95399.66;5095782;28;20477;-31
2022/01/10 00:47:54;;;;;;;12.40;6.87;;;;;;;3.05;100.00;95403.66;5095621;28;20486;-31
2022/01/10 00:50:24;;;;;;;9.97;5.80;;;;;;;3.09;100.00;95394.31;5096052;28;20446;-31
2022/01/10 00:52:52;;;;;;;9.40;5.47;;;;;;;3.08;100.00;95397.97;5096133;28;20446;-31
2022/01/10 00:55:19;;;;;;;15.20;5.27;;;;;;;3.11;100.00;95397.53;5095952;28;20810;-30
2022/01/10 00:57:47;;;;;;;11.67;6.07;;;;;;;3.12;100.00;95409.63;5095142;28;20474;-31
2022/01/10 01:00:17;;;;;;;29.50;13.13;;;;;;;3.12;100.00;95404.38;5095864;28;20447;-30
2022/01/10 01:02:44;;;;;;;16.50;8.70;;;;;;;3.11;100.00;95405.41;5095515;28;20447;-32
2022/01/10 01:05:14;;;;;;;20.93;10.27;;;;;;;3.10;100.00;95402.97;5095453;28;20442;-31
2022/01/10 01:07:41;;;;;;;15.87;7.80;;;;;;;3.08;100.00;95408.47;5095363;28;20490;-31
2022/01/10 01:10:34;;;;;;;15.37;8.10;;;;;;;3.08;100.00;95404.03;5095230;28;20517;-30
2022/01/10 01:13:03;;;;;;;16.43;7.70;;;;;;;3.00;100.00;95406.16;5095093;28;20525;-31
2022/01/10 01:15:34;;;;;;;12.70;7.67;;;;;;;2.97;100.00;95401.34;5095258;28;20492;-31
2022/01/10 01:18:16;;;;;;;17.73;7.30;;;;;;;2.98;100.00;95402.97;5095150;28;20911;-30
2022/01/10 01:23:59;;;;;;;11.83;7.10;;;;;;;2.94;100.00;95401.78;5095400;28;20457;-31
2022/01/10 01:26:18;;;;;;;16.70;5.10;;;;;;;2.63;100.00;95374.78;5095333;28;20807;-30
2022/01/10 01:28:45;;;;;;;15.03;5.70;;;;;;;2.80;100.00;95401.97;5094812;28;20581;-30
2022/01/10 01:31:14;;;;;;;11.13;6.00;;;;;;;2.76;100.00;95405.25;5096198;28;20494;-31
2022/01/10 01:33:41;;;;;;;10.40;6.40;;;;;;;2.73;100.00;95406.50;5095087;28;20443;-31
2022/01/10 01:36:09;;;;;;;15.73;7.57;;;;;;;2.72;100.00;95399.66;5095115;28;20472;-31
2022/01/10 01:38:37;;;;;;;11.60;6.33;;;;;;;2.80;100.00;95399.34;5094685;28;20443;-31
2022/01/10 01:41:21;;;;;;;17.73;9.33;;;;;;;2.84;100.00;95407.59;5095348;28;20475;-30
2022/01/10 01:43:50;;;;;;;14.40;5.97;;;;;;;2.87;100.00;95402.69;5094618;28;20463;-31
2022/01/10 01:46:19;;;;;;;7.03;4.53;;;;;;;2.75;100.00;95383.47;5094556;28;20434;-31
2022/01/10 01:48:47;;;;;;;14.43;4.93;;;;;;;2.99;100.00;95399.28;5094416;28;21000;-32
2022/01/10 01:51:15;;;;;;;16.00;6.50;;;;;;;3.05;100.00;95395.78;5094577;28;20445;-30
2022/01/10 01:53:42;;;;;;;17.93;7.33;;;;;;;3.06;100.00;95395.56;5094440;28;20445;-31
2022/01/10 01:56:11;;;;;;;13.27;6.63;;;;;;;3.10;100.00;95385.44;5094501;28;20894;-31
2022/01/10 01:58:39;;;;;;;7.30;4.90;;;;;;;3.15;100.00;95384.78;5094770;28;20556;-31
2022/01/10 02:01:08;;;;;;;9.33;4.20;;;;;;;3.20;100.00;95390.94;5094627;28;20837;-30
2022/01/10 02:03:38;;;;;;;6.27;4.20;;;;;;;3.23;100.00;95379.22;5094597;28;20450;-30
2022/01/10 02:06:06;;;;;;;7.20;4.20;;;;;;;3.24;100.00;95389.47;5095309;28;20431;-30
2022/01/10 02:08:34;;;;;;;7.70;4.87;;;;;;;3.23;100.00;95387.88;5093337;28;21089;-30
2022/01/10 02:11:03;;;;;;;10.73;5.70;;;;;;;3.10;100.00;95372.34;5094482;28;20443;-30
2022/01/10 02:13:30;;;;;;;13.10;7.70;;;;;;;3.26;100.00;95384.00;5094058;28;20446;-31
2022/01/10 02:16:00;;;;;;;11.00;6.10;;;;;;;3.26;100.00;95395.28;5094051;28;20446;-31
2022/01/10 02:18:28;;;;;;;10.67;4.53;;;;;;;3.23;100.00;95395.75;5094098;28;20431;-31
2022/01/10 02:21:00;;;;;;;8.77;5.87;;;;;;;3.22;100.00;95402.00;5094359;28;20791;-30
2022/01/10 02:23:28;;;;;;;6.73;5.70;;;;;;;3.12;100.00;95396.53;5094015;28;20424;-31
2022/01/10 02:25:56;;;;;;;8.70;5.27;;;;;;;2.99;100.00;95394.06;5094341;28;20835;-30
2022/01/10 02:28:24;;;;;;;7.80;4.90;;;;;;;2.99;100.00;95396.69;5093735;28;20516;-31
2022/01/10 02:30:56;;;;;;;11.33;5.90;;;;;;;3.00;100.00;95400.91;5094111;28;20820;-30
2022/01/10 02:33:23;;;;;;;8.33;4.57;;;;;;;3.05;100.00;95408.91;5093814;28;20423;-31
2022/01/10 02:35:59;;;;;;;8.60;5.87;;;;;;;3.00;100.00;95388.59;5094054;28;20535;-31
2022/01/10 02:38:28;;;;;;;14.77;7.30;;;;;;;3.07;100.00;95417.34;5093714;28;20430;-31
2022/01/10 02:40:56;;;;;;;6.97;4.70;;;;;;;3.03;100.00;95411.75;5093661;28;20451;-30
2022/01/10 02:43:24;;;;;;;7.63;4.13;;;;;;;3.02;100.00;95409.34;5093626;28;20447;-30
2022/01/10 02:45:51;;;;;;;39.50;16.07;;;;;;;3.03;100.00;95410.94;5093801;28;20441;-31
2022/01/10 02:48:18;;;;;;;53.70;22.80;;;;;;;3.02;100.00;95410.16;5093830;28;20837;-31
2022/01/10 02:50:46;;;;;;;31.53;13.40;;;;;;;3.00;100.00;95414.03;5093390;28;20439;-31
2022/01/10 02:53:13;;;;;;;20.77;11.43;;;;;;;2.95;100.00;95419.16;5093855;28;20443;-31
2022/01/10 02:55:42;;;;;;;26.03;12.80;;;;;;;2.94;100.00;95420.94;5093603;28;20473;-30
2022/01/10 02:58:09;;;;;;;17.17;8.80;;;;;;;2.93;100.00;95418.56;5094376;28;20431;-31
2022/01/10 03:00:36;;;;;;;4.43;4.00;;;;;;;2.94;100.00;95414.91;5093439;28;20450;-31
2022/01/10 03:03:06;;;;;;;6.43;5.20;;;;;;;2.97;100.00;95427.56;5093943;28;20504;-30
2022/01/10 03:05:34;;;;;;;6.30;4.80;;;;;;;3.01;100.00;95419.06;5093485;28;20427;-30
2022/01/10 03:08:03;;;;;;;9.17;4.87;;;;;;;3.07;100.00;95410.28;5093310;28;20514;-31
2022/01/10 03:10:31;;;;;;;8.20;4.97;;;;;;;3.15;100.00;95409.19;5093341;28;20996;-30
2022/01/10 03:13:01;;;;;;;11.10;6.00;;;;;;;3.20;100.00;95406.66;5093616;28;20453;-31
2022/01/10 03:15:29;;;;;;;8.03;4.93;;;;;;;3.22;100.00;95402.00;5093389;28;20424;-30
2022/01/10 03:17:57;;;;;;;5.40;4.10;;;;;;;3.20;100.00;95417.16;5093259;28;20453;-32
2022/01/10 03:20:24;;;;;;;7.30;4.23;;;;;;;3.19;100.00;95410.34;5096135;28;20443;-30
2022/01/10 03:22:52;;;;;;;10.90;4.63;;;;;;;3.22;100.00;95409.06;5097380;28;20525;-31
2022/01/10 03:25:20;;;;;;;4.03;3.73;;;;;;;3.07;100.00;95391.13;5097263;28;20934;-31
2022/01/10 03:27:48;;;;;;;5.77;4.23;;;;;;;3.27;100.00;95417.88;5097211;28;20958;-31
2022/01/10 03:30:17;;;;;;;10.97;6.57;;;;;;;3.34;100.00;95422.25;5097276;28;20474;-31
2022/01/10 03:32:45;;;;;;;11.57;7.07;;;;;;;3.37;100.00;95411.28;5097288;28;20984;-32
2022/01/10 03:35:13;;;;;;;4.17;3.10;;;;;;;3.33;100.00;95399.66;5097048;28;20449;-31
2022/01/10 03:37:40;;;;;;;7.20;4.67;;;;;;;3.37;100.00;95419.16;5097009;28;20956;-31
2022/01/10 03:40:09;;;;;;;10.10;5.23;;;;;;;3.32;100.00;95416.41;5097044;28;20442;-30
2022/01/10 03:42:37;;;;;;;7.30;4.60;;;;;;;3.21;100.00;95415.38;5097221;28;20926;-31
2022/01/10 03:45:06;;;;;;;5.17;3.57;;;;;;;3.13;100.00;95411.22;5096877;28;20526;-31
2022/01/10 03:47:35;;;;;;;15.83;5.63;;;;;;;3.01;100.00;95413.00;5096830;28;20534;-31
2022/01/10 03:50:02;;;;;;;11.60;4.90;;;;;;;2.93;100.00;95415.94;5097149;28;20490;-30
2022/01/10 03:52:29;;;;;;;8.50;4.50;;;;;;;2.87;100.00;95423.66;5097160;28;20443;-31
2022/01/10 03:54:57;;;;;;;4.97;3.40;;;;;;;2.87;100.00;95421.03;5096794;28;20442;-31
2022/01/10 03:57:24;;;;;;;8.70;5.37;;;;;;;2.91;100.00;95417.97;5096662;28;20466;-30
2022/01/10 03:59:51;;;;;;;24.80;11.27;;;;;;;2.92;100.00;95414.31;5096699;28;20450;-31
2022/01/10 04:02:19;;;;;;;20.13;11.83;;;;;;;2.93;100.00;95410.69;5096935;28;20438;-31
2022/01/10 04:04:47;;;;;;;12.80;6.60;;;;;;;2.90;100.00;95411.91;5096539;28;20443;-31
2022/01/10 04:07:16;;;;;;;6.80;4.40;;;;;;;2.89;100.00;95420.03;5096852;28;20445;-32
2022/01/10 04:09:44;;;;;;;6.30;4.20;;;;;;;2.87;100.00;95413.16;5096445;28;21021;-31
2022/01/10 04:12:11;;;;;;;6.90;3.70;;;;;;;2.91;100.00;95417.97;5096437;28;20482;-31
2022/01/10 04:14:39;;;;;;;8.07;5.67;;;;;;;2.97;100.00;95424.94;5096725;28;20443;-31
2022/01/10 04:17:06;;;;;;;11.50;6.63;;;;;;;3.03;100.00;95414.38;5096377;28;20496;-31
2022/01/10 04:19:33;;;;;;;9.17;5.43;;;;;;;3.04;100.00;95417.81;5096602;28;20793;-32
2022/01/10 04:22:03;;;;;;;6.80;5.17;;;;;;;3.04;100.00;95417.81;5096562;28;20449;-31
2022/01/10 04:24:31;;;;;;;8.30;4.10;;;;;;;3.08;100.00;95418.97;5096190;28;20434;-30
2022/01/10 04:26:58;;;;;;;6.00;4.17;;;;;;;3.13;100.00;95426.94;5096111;28;20439;-31
2022/01/10 04:29:25;;;;;;;7.77;5.93;;;;;;;3.17;100.00;95428.13;5096363;28;20490;-31
2022/01/10 04:31:53;;;;;;;10.27;6.53;;;;;;;3.16;100.00;95426.53;5095162;28;20439;-31
2022/01/10 04:34:20;;;;;;;9.83;5.67;;;;;;;3.20;100.00;95426.88;5096013;28;20812;-31
2022/01/10 04:36:47;;;;;;;3.70;3.00;;;;;;;3.21;100.00;95437.13;5096286;28;20450;-31
2022/01/10 04:39:16;;;;;;;3.53;3.23;;;;;;;3.25;100.00;95443.53;5095960;28;20443;-30
2022/01/10 04:41:44;;;;;;;8.33;4.47;;;;;;;3.27;100.00;95452.00;5095812;28;20538;-31
2022/01/10 04:44:11;;;;;;;7.70;3.83;;;;;;;3.28;100.00;95458.81;5095888;28;20935;-31
2022/01/10 04:46:39;;;;;;;9.20;5.10;;;;;;;3.27;100.00;95453.81;5095741;28;20447;-30
2022/01/10 04:49:11;;;;;;;15.30;8.47;;;;;;;3.24;100.00;95459.50;5095699;28;20497;-31
2022/01/10 04:51:39;;;;;;;33.77;20.73;;;;;;;3.19;100.00;95452.28;5095705;28;20423;-31
2022/01/10 04:54:06;;;;;;;29.33;15.50;;;;;;;3.19;100.00;95456.75;5095970;28;20439;-31
2022/01/10 04:56:35;;;;;;;18.13;10.57;;;;;;;3.17;100.00;95451.72;5095444;28;20470;-30
2022/01/10 04:59:02;;;;;;;8.00;6.40;;;;;;;3.16;100.00;95458.00;5095861;28;20447;-31
2022/01/10 05:01:29;;;;;;;18.97;8.93;;;;;;;3.13;100.00;95453.19;5095813;28;20489;-31
2022/01/10 05:03:57;;;;;;;15.20;9.50;;;;;;;3.08;100.00;95450.44;5095378;28;20946;-31
2022/01/10 05:06:24;;;;;;;18.77;9.57;;;;;;;3.03;100.00;95448.47;5095694;28;20813;-31
2022/01/10 05:08:51;;;;;;;39.43;16.67;;;;;;;3.02;100.00;95446.88;5095521;28;20483;-30
2022/01/10 05:11:20;;;;;;;57.67;25.60;;;;;;;3.03;100.00;95455.53;5095184;28;20446;-31
2022/01/10 05:13:49;;;;;;;60.60;22.47;;;;;;;3.04;100.00;95463.19;5095224;28;20451;-30
2022/01/10 05:16:18;;;;;;;58.73;24.37;;;;;;;3.03;100.00;95466.84;5095494;28;20447;-31
2022/01/10 05:18:46;;;;;;;61.73;24.33;;;;;;;3.04;100.00;95475.50;5095413;28;20447;-33
2022/01/10 05:21:16;;;;;;;33.10;16.30;;;;;;;3.01;100.00;95470.69;5094975;28;20439;-30
2022/01/10 05:23:43;;;;;;;43.87;19.57;;;;;;;3.00;100.00;95479.56;5095370;28;20449;-30
2022/01/10 05:26:10;;;;;;;51.53;20.73;;;;;;;3.04;100.00;95476.28;5095265;28;20480;-30
2022/01/10 05:28:38;;;;;;;28.00;13.53;;;;;;;3.10;100.00;95484.28;5094910;28;20443;-30
2022/01/10 05:31:07;;;;;;;37.53;15.40;;;;;;;3.13;100.00;95492.53;5094949;28;20937;-30
2022/01/10 05:33:34;;;;;;;48.23;22.00;;;;;;;3.13;100.00;95494.34;5095333;28;20446;-30
2022/01/10 05:36:01;;;;;;;55.73;27.53;;;;;;;3.04;100.00;95494.66;5095072;28;20439;-31
2022/01/10 05:38:28;;;;;;;54.70;25.77;;;;;;;3.03;100.00;95492.22;5094998;28;21049;-31
2022/01/10 05:40:55;;;;;;;33.43;18.43;;;;;;;3.04;100.00;95506.97;5095045;28;20450;-30
2022/01/10 05:43:22;;;;;;;31.60;14.00;;;;;;;2.99;100.00;95504.19;5094640;28;20449;-30
2022/01/10 05:45:50;;;;;;;23.90;13.57;;;;;;;2.86;100.00;95500.72;5094894;28;20446;-30
2022/01/10 05:48:25;;;;;;;15.47;8.90;;;;;;;2.93;100.00;95510.31;5094858;28;20469;-31
2022/01/10 05:50:53;;;;;;;13.63;6.87;;;;;;;2.91;100.00;95505.28;5094442;28;20569;-32
2022/01/10 05:53:20;;;;;;;18.50;8.50;;;;;;;2.89;100.00;95499.47;5094493;28;20439;-31
2022/01/10 05:55:48;;;;;;;30.60;10.17;;;;;;;2.73;100.00;95484.31;5094191;28;20936;-31
2022/01/10 05:58:16;;;;;;;19.20;10.43;;;;;;;2.89;100.00;95503.91;5094499;28;20427;-31
2022/01/10 06:00:44;;;;;;;15.43;7.30;;;;;;;2.95;100.00;95503.03;5094247;28;20486;-30
2022/01/10 06:03:11;;;;;;;19.43;12.27;;;;;;;2.88;100.00;95487.38;5094543;28;20439;-31
2022/01/10 06:05:40;;;;;;;12.47;6.53;;;;;;;3.09;100.00;95522.81;5094519;28;20946;-31
2022/01/10 06:08:08;;;;;;;29.60;12.20;;;;;;;3.12;100.00;95517.16;5094205;28;20439;-30
2022/01/10 06:10:36;;;;;;;31.47;13.77;;;;;;;3.17;100.00;95522.53;5094037;28;20493;-31
2022/01/10 06:13:04;;;;;;;37.90;14.87;;;;;;;3.19;100.00;95523.13;5094742;28;20447;-32
2022/01/10 06:15:31;;;;;;;19.70;12.33;;;;;;;3.25;100.00;95530.09;5094172;28;20442;-31
2022/01/10 06:17:59;;;;;;;15.33;7.30;;;;;;;3.26;100.00;95526.44;5094068;28;20453;-30
2022/01/10 06:20:26;;;;;;;11.77;5.43;;;;;;;3.30;100.00;95526.03;5094265;28;20927;-31
2022/01/10 06:22:55;;;;;;;7.63;4.30;;;;;;;3.33;100.00;95525.56;5094342;28;20947;-31
2022/01/10 06:25:25;;;;;;;5.40;3.23;;;;;;;3.35;100.00;95532.19;5094162;28;20447;-31
2022/01/10 06:27:52;;;;;;;4.20;3.23;;;;;;;3.37;100.00;95526.72;5094277;28;20435;-31
2022/01/10 06:30:20;;;;;;;6.50;4.73;;;;;;;3.27;100.00;95522.81;5094167;28;20497;-31
2022/01/10 06:32:48;;;;;;;3.33;3.00;;;;;;;3.27;100.00;95511.53;5094039;28;20447;-31
2022/01/10 06:35:15;;;;;;;3.93;3.63;;;;;;;3.44;100.00;95536.13;5093730;28;20808;-32
2022/01/10 06:37:43;;;;;;;14.20;3.97;;;;;;;3.47;100.00;95540.13;5093751;28;20804;-31
2022/01/10 06:40:13;;;;;;;5.67;4.67;;;;;;;3.52;100.00;95545.50;5093628;28;20443;-31
2022/01/10 06:42:41;;;;;;;8.70;6.50;;;;;;;3.54;100.00;95538.22;5093614;28;20445;-31
2022/01/10 06:45:10;;;;;;;16.67;9.03;;;;;;;3.53;100.00;95541.88;5093850;28;20826;-31
2022/01/10 06:47:37;;;;;;;9.80;7.60;;;;;;;3.56;100.00;95551.91;5093471;28;21009;-30
2022/01/10 06:50:06;;;;;;;10.23;6.00;;;;;;;3.54;100.00;95548.72;5093509;28;20490;-31
2022/01/10 06:52:33;;;;;;;13.83;8.77;;;;;;;3.49;100.00;95557.25;5093475;28;20435;-30
2022/01/10 06:55:01;;;;;;;13.83;6.37;;;;;;;3.43;100.00;95559.97;5093369;28;20446;-31
2022/01/10 06:57:29;;;;;;;22.97;13.17;;;;;;;3.31;100.00;95559.88;5093437;28;20989;-31
2022/01/10 06:59:57;;;;;;;17.90;9.70;;;;;;;3.30;100.00;95566.16;5093363;28;20500;-30
2022/01/10 07:02:24;;;;;;;13.27;9.37;;;;;;;3.30;100.00;95562.75;5093427;28;20457;-31
2022/01/10 07:04:52;;;;;;;13.60;7.20;;;;;;;3.23;100.00;95558.38;5093349;28;20450;-31
2022/01/10 07:07:19;;;;;;;9.80;6.10;;;;;;;3.20;100.00;95571.13;5093388;28;20778;-30
2022/01/10 07:09:46;;;;;;;12.70;5.60;;;;;;;3.23;100.00;95562.84;5093494;28;20486;-31
2022/01/10 07:12:14;;;;;;;10.60;6.50;;;;;;;3.22;100.00;95567.25;5093250;28;20430;-30
2022/01/10 07:14:43;;;;;;;7.77;5.17;;;;;;;3.23;100.00;95562.84;5093226;28;20530;-31
2022/01/10 07:17:10;;;;;;;10.03;4.47;;;;;;;3.19;100.00;95566.91;5093041;28;20447;-31
2022/01/10 07:19:37;;;;;;;6.33;3.47;;;;;;;3.11;100.00;95568.00;5094429;28;20465;-30
2022/01/10 07:22:05;;;;;;;9.67;5.90;;;;;;;3.09;100.00;95572.66;5093237;28;20950;-30
2022/01/10 07:24:33;;;;;;;15.90;6.50;;;;;;;3.08;100.00;95571.06;5093543;28;20463;-30
2022/01/10 07:27:01;;;;;;;16.30;9.73;;;;;;;3.14;100.00;95579.88;5093257;28;20815;-31
2022/01/10 07:29:28;;;;;;;24.87;12.23;;;;;;;3.04;100.00;95569.91;5093393;28;20486;-31
2022/01/10 07:31:56;;;;;;;12.90;6.70;;;;;;;3.25;100.00;95582.56;5093054;28;20443;-31
2022/01/10 07:34:24;;;;;;;12.20;8.30;;;;;;;3.32;100.00;95581.69;5093324;28;20508;-30
2022/01/10 07:36:51;;;;;;;8.87;6.20;;;;;;;3.38;100.00;95583.44;5093492;28;20446;-31
2022/01/10 07:39:18;;;;;;;9.10;5.00;;;;;;;3.38;100.00;95575.56;5093013;28;20901;-31
2022/01/10 07:41:46;;;;;;;8.40;3.57;;;;;;;3.28;100.00;95569.00;5093284;28;20443;-31
2022/01/10 07:44:14;;;;;;;5.60;3.50;;;;;;;3.46;100.00;95583.94;5093412;28;20473;-31
2022/01/10 07:46:41;;;;;;;81.00;32.67;;;;;;;3.51;100.00;95590.34;5094003;28;20447;-31
2022/01/10 07:49:10;;;;;;;21.30;11.80;;;;;;;3.53;100.00;95602.22;5092944;28;20445;-31
2022/01/10 07:51:37;;;;;;;26.40;12.13;;;;;;;3.53;100.00;95606.66;5093205;28;20438;-31
2022/01/10 07:54:04;;;;;;;21.73;10.90;;;;;;;3.53;100.00;95583.88;5093308;28;20458;-31
2022/01/10 07:56:32;;;;;;;7.07;4.47;;;;;;;3.57;100.00;95587.66;5092771;28;20519;-31
2022/01/10 07:58:59;;;;;;;21.43;11.67;;;;;;;3.58;100.00;95585.81;5092823;28;20923;-31
2022/01/10 08:01:26;;;;;;;21.43;10.87;;;;;;;3.52;100.00;95584.88;5092827;28;20483;-30
2022/01/10 08:03:54;;;;;;;6.57;5.43;;;;;;;3.51;100.00;95593.78;5093119;28;20450;-31
2022/01/10 08:06:23;;;;;;;4.03;3.00;;;;;;;3.50;100.00;95586.91;5093436;28;20443;-30
2022/01/10 08:08:51;;;;;;;11.10;4.17;;;;;;;3.49;100.00;95590.56;5096408;28;20447;-32
2022/01/10 08:11:19;;;;;;;5.47;4.63;;;;;;;3.52;100.00;95586.69;5096417;28;20494;-31
2022/01/10 08:13:46;;;;;;;8.83;5.50;;;;;;;3.53;100.00;95598.78;5096643;28;20442;-32
2022/01/10 08:16:13;;;;;;;4.77;2.70;;;;;;;3.54;100.00;95585.44;5096664;28;20768;-31
2022/01/10 08:18:41;;;;;;;6.83;4.40;;;;;;;3.56;100.00;95603.59;5096678;28;20447;-31
2022/01/10 08:21:08;;;;;;;3.23;2.97;;;;;;;3.56;100.00;95588.66;5096640;28;20792;-30
2022/01/10 08:23:36;;;;;;;7.93;5.30;;;;;;;3.56;100.00;95601.78;5096417;28;20533;-30
2022/01/10 08:26:08;;;;;;;19.33;13.23;;;;;;;3.57;100.00;95598.16;5096269;28;20933;-31
2022/01/10 08:28:35;;;;;;;4.43;3.67;;;;;;;3.56;100.00;95604.41;5096566;28;20829;-33
2022/01/10 08:31:03;;;;;;;9.57;6.27;;;;;;;3.51;100.00;95601.66;5095877;28;20490;-31
2022/01/10 08:33:30;;;;;;;28.47;17.73;;;;;;;3.62;100.00;95608.78;5096238;28;20443;-31
2022/01/10 08:35:58;;;;;;;20.17;12.97;;;;;;;3.66;100.00;95604.69;5095903;28;20447;-31
2022/01/10 08:38:25;;;;;;;12.33;7.00;;;;;;;3.52;100.00;95579.63;5095873;28;20481;-31
2022/01/10 08:40:54;;;;;;;5.97;3.50;;;;;;;3.74;100.00;95615.91;5096211;28;20442;-31
2022/01/10 08:43:21;;;;;;;5.53;4.13;;;;;;;3.73;100.00;95614.31;5096092;28;20447;-31
2022/01/10 08:45:49;;;;;;;11.83;6.40;;;;;;;3.77;100.00;95615.47;5096066;28;20473;-30
2022/01/10 08:48:16;;;;;;;16.03;10.20;;;;;;;3.71;100.00;95598.78;5096117;28;20523;-31
2022/01/10 08:50:43;;;;;;;4.50;3.87;;;;;;;3.81;100.00;95614.00;5095765;28;20844;-32
2022/01/10 08:53:11;;;;;;;7.30;4.20;;;;;;;3.81;100.00;95601.69;5095695;28;20513;-31
2022/01/10 08:55:39;;;;;;;18.60;7.17;;;;;;;3.79;100.00;95602.94;5095713;28;20439;-30
2022/01/10 08:58:08;;;;;;;83.10;30.60;;;;;;;3.83;100.00;95614.56;5095604;28;20427;-31
2022/01/10 09:00:35;;;;;;;75.87;22.90;;;;;;;3.81;100.00;95601.69;5095495;28;20496;-31
2022/01/10 09:03:03;;;;;;;47.43;17.17;;;;;;;3.79;100.00;95610.81;5095637;28;20443;-31
2022/01/10 09:05:32;;;;;;;60.77;23.67;;;;;;;3.77;100.00;95610.22;5095408;28;20439;-30
2022/01/10 09:08:01;;;;;;;14.03;6.83;;;;;;;3.74;100.00;95605.41;5095678;28;20439;-31
2022/01/10 09:10:29;;;;;;;9.33;4.17;;;;;;;3.75;100.00;95609.63;5095682;28;20500;-31
2022/01/10 09:12:57;;;;;;;4.77;3.47;;;;;;;3.77;100.00;95604.97;5095269;28;20439;-32
2022/01/10 09:15:26;;;;;;;4.17;3.60;;;;;;;3.80;100.00;95604.50;5095208;28;20439;-31
2022/01/10 09:17:53;;;;;;;6.13;4.20;;;;;;;3.84;100.00;95603.03;5093547;28;20439;-31
2022/01/10 09:20:21;;;;;;;3.60;2.43;;;;;;;3.87;100.00;95606.03;5093158;28;20439;-31
2022/01/10 09:22:48;;;;;;;23.90;9.83;;;;;;;3.91;100.00;95616.88;5093396;28;20469;-31
2022/01/10 09:25:15;;;;;;;4.30;3.90;;;;;;;3.92;100.00;95605.38;5093697;28;20926;-31
2022/01/10 09:27:43;;;;;;;9.77;3.30;;;;;;;3.93;100.00;95606.16;5093336;28;20938;-31
2022/01/10 09:30:12;;;;;;;21.00;5.73;;;;;;;3.93;100.00;95603.53;5093046;28;20489;-31
2022/01/10 09:32:41;;;;;;;4.70;3.60;;;;;;;3.95;100.00;95610.16;5093940;28;20793;-32
2022/01/10 09:35:09;;;;;;;7.00;2.97;;;;;;;3.98;100.00;95612.34;5095162;28;20449;-31
2022/01/10 09:37:37;;;;;;;4.80;3.50;;;;;;;4.00;100.00;95610.31;5094781;28;20437;-31
2022/01/10 09:40:06;;;;;;;8.63;4.77;;;;;;;4.00;100.00;95612.94;5094682;28;20533;-30
2022/01/10 09:42:34;;;;;;;8.07;3.50;;;;;;;3.99;100.00;95616.56;5094788;28;20442;-31
2022/01/10 09:45:02;;;;;;;5.73;5.10;;;;;;;3.99;100.00;95608.69;5094961;28;20795;-31
2022/01/10 09:47:29;;;;;;;21.80;16.97;;;;;;;3.99;100.00;95606.06;5094951;28;20447;-31
2022/01/10 09:49:58;;;;;;;12.20;10.30;;;;;;;3.98;100.00;95607.09;5094831;28;20447;-30
2022/01/10 09:52:25;;;;;;;10.60;4.97;;;;;;;4.00;100.00;95607.69;5094834;28;20469;-31
2022/01/10 09:54:53;;;;;;;5.30;4.43;;;;;;;4.01;100.00;95606.66;5094839;28;20919;-31
2022/01/10 09:57:20;;;;;;;16.23;9.03;;;;;;;4.02;100.00;95603.00;5094360;28;20502;-32
2022/01/10 09:59:48;;;;;;;19.97;8.47;;;;;;;4.02;100.00;95608.25;5094610;28;20469;-31
2022/01/10 10:02:15;;;;;;;25.43;12.80;;;;;;;4.05;100.00;95612.25;5093515;28;20946;-31
2022/01/10 10:04:44;;;;;;;23.93;16.17;;;;;;;4.06;100.00;95612.00;5094108;28;20443;-31
2022/01/10 10:07:13;;;;;;;47.40;18.70;;;;;;;4.10;100.00;95602.66;5094166;28;20497;-31
2022/01/10 10:09:40;;;;;;;37.30;15.63;;;;;;;3.96;100.00;95574.19;5094168;28;20442;-31
2022/01/10 10:12:09;;;;;;;16.37;8.70;;;;;;;4.16;100.00;95600.19;5094316;28;20518;-31
2022/01/10 10:14:36;;;;;;;8.97;5.80;;;;;;;4.16;100.00;95600.97;5094087;28;20839;-31
2022/01/10 10:17:13;;;;;;;6.60;4.70;;;;;;;4.13;100.00;95600.63;5094180;28;20497;-31
2022/01/10 10:19:43;;;;;;;11.63;7.47;;;;;;;4.03;100.00;95596.72;5094066;28;20968;-32
2022/01/10 10:22:10;;;;;;;12.80;7.37;;;;;;;4.14;100.00;95599.63;5094430;28;20447;-32
2022/01/10 10:24:39;;;;;;;17.10;10.13;;;;;;;4.16;100.00;95618.56;5094040;28;20443;-31
2022/01/10 10:27:06;;;;;;;35.80;17.80;;;;;;;4.19;100.00;95612.88;5094123;28;20446;-31
2022/01/10 10:29:33;;;;;;;117.73;39.17;;;;;;;4.19;100.00;95621.53;5093171;28;20444;-31
2022/01/10 10:32:02;;;;;;;133.87;39.83;;;;;;;4.21;100.00;95610.81;5093890;28;20541;-31
2022/01/10 10:34:31;;;;;;;97.80;35.60;;;;;;;4.22;100.00;95612.44;5094016;28;20439;-32
2022/01/10 10:37:04;;;;;;;71.10;30.07;;;;;;;4.19;100.00;95612.88;5093980;28;20451;-31
2022/01/10 10:39:34;;;;;;;107.07;42.83;;;;;;;4.19;100.00;95615.50;5094188;28;20439;-32
2022/01/10 10:42:06;;;;;;;74.73;32.87;;;;;;;4.19;100.00;95621.53;5093677;28;20476;-31
2022/01/10 10:44:33;;;;;;;41.20;20.20;;;;;;;4.06;100.00;95593.63;5093984;28;20763;-31
2022/01/10 10:47:01;;;;;;;32.77;14.80;;;;;;;4.06;100.00;95584.97;5093527;28;20447;-31
2022/01/10 10:49:33;;;;;;;15.03;5.43;;;;;;;4.24;100.00;95623.53;5093897;28;20792;-31
2022/01/10 10:52:01;;;;;;;4.90;2.93;;;;;;;4.22;100.00;95617.69;5093850;28;20490;-31
2022/01/10 10:54:32;;;;;;;8.13;5.10;;;;;;;4.21;100.00;95621.31;5093573;28;20452;-32
2022/01/10 10:56:59;;;;;;;6.20;4.03;;;;;;;4.17;100.00;95612.28;5093578;28;20839;-31
2022/01/10 10:59:31;;;;;;;5.80;5.27;;;;;;;4.18;100.00;95616.53;5094095;28;20450;-32
2022/01/10 11:02:01;;;;;;;9.13;5.77;;;;;;;4.19;100.00;95620.75;5093444;28;20434;-32
2022/01/10 11:04:29;;;;;;;8.30;5.83;;;;;;;4.17;100.00;95625.41;5093422;28;20443;-31
2022/01/10 11:06:58;;;;;;;12.20;4.90;;;;;;;4.19;100.00;95623.38;5093570;28;20445;-31
2022/01/10 11:09:25;;;;;;;8.90;6.27;;;;;;;4.20;100.00;95635.50;5093535;28;20445;-31
2022/01/10 11:11:53;;;;;;;59.40;23.03;;;;;;;4.21;100.00;95626.56;5093177;28;20486;-31
2022/01/10 11:14:22;;;;;;;87.87;35.50;;;;;;;4.22;100.00;95631.63;5094240;28;20521;-30
2022/01/10 11:16:52;;;;;;;51.13;26.00;;;;;;;4.23;100.00;95635.03;5093256;28;20447;-32
2022/01/10 11:19:22;;;;;;;34.20;16.67;;;;;;;4.24;100.00;95632.19;5093678;28;20476;-31
2022/01/10 11:21:55;;;;;;;43.53;22.57;;;;;;;4.25;100.00;95638.25;5093309;28;20939;-31
2022/01/10 11:24:44;;;;;;;36.90;17.30;;;;;;;4.26;100.00;95638.03;5093619;28;20783;-32
2022/01/10 11:27:32;;;;;;;13.80;10.70;;;;;;;4.27;100.00;95631.72;5093223;28;20423;-30
2022/01/10 11:30:00;;;;;;;41.97;19.57;;;;;;;4.29;100.00;95639.41;5093301;28;20435;-31
2022/01/10 11:32:52;;;;;;;59.43;28.00;;;;;;;4.28;100.00;95633.34;5093357;28;20529;-31
2022/01/10 11:35:19;;;;;;;75.03;29.67;;;;;;;4.30;100.00;95635.72;5093529;28;20439;-31